Terminal Aerodrome Forecast
Issued by NWS

Home | Current Version | Previous Version | Graphics & Text | Print | Product List | Glossary On
Versions: 1 2 3 4 5 6 7 8 9 10 11 12 13
000
FTUS43 KICT 250522
TAFRSL
TAF
KRSL 250522Z 2506/2606 09008KT P6SM VCSH OVC080
      TEMPO 2506/2510 6SM SHRA OVC040
     FM251200 03009KT 5SM SHRA VCTS OVC025CB
     FM251600 02011KT 4SM SHRA VCTS OVC015CB
     FM252300 01009KT 4SM BR VCSH OVC010=

USA.gov is the U.S. government's official web portal to all federal, state and local government web resources and services.